Bells, Texas
Current Conditions -  °F | °C
As of 8:55 AM on Monday 24 Nov 2014 (Local Time) from KGYI Reporting Station
Clear Clear  
Wind Chill: 40°   Ceiling: Unl
Heat Index: 44°   Visibility: 10mi
Dew Point: 36°   Wind: 8mph
Humidity: 73%   Direction: 280°W
Pressure: 30.03"   Gusts: NA
Location:  33.61°N, 96.41°W
Report Text: KGYI 241455Z AUTO 28007KT 10SM CLR 07/02 A3003 RMK AO2 T00680023
Loading
Personal Weather Stations






























Interactive Weather Map New forecast layout! Learn more

10-Day Weather Forecast

Advertisements
Track Severe Weather on mobile